createdAt,value
2023-01-17T00:01:47.915Z,4.57
2023-01-17T00:04:33.791Z,4.10
2023-01-17T00:07:19.960Z,4.47
2023-01-17T00:09:53.093Z,4.73
2023-01-17T00:12:30.440Z,4.33
2023-01-17T00:14:58.641Z,4.57
2023-01-17T00:17:26.840Z,4.23
2023-01-17T00:20:13.252Z,4.57
2023-01-17T00:22:59.380Z,4.70
2023-01-17T00:25:47.857Z,4.53
2023-01-17T00:28:15.180Z,4.70
2023-01-17T00:30:42.399Z,5.27
2023-01-17T00:33:09.580Z,5.03
2023-01-17T00:35:36.883Z,4.37
2023-01-17T00:38:08.631Z,4.67
2023-01-17T00:40:36.860Z,4.90
2023-01-17T00:43:23.491Z,4.73
2023-01-17T00:46:09.406Z,4.97
2023-01-17T00:48:55.659Z,5.03
2023-01-17T00:51:42.245Z,5.20
2023-01-17T00:54:28.436Z,4.50
2023-01-17T00:57:14.426Z,4.83
2023-01-17T01:00:00.203Z,4.57
2023-01-17T01:02:46.351Z,4.80
2023-01-17T01:05:33.425Z,4.80
2023-01-17T01:08:20.011Z,4.63
2023-01-17T01:11:06.887Z,4.47
2023-01-17T01:13:53.358Z,3.80
2023-01-17T01:16:39.323Z,4.10
2023-01-17T01:19:25.379Z,4.20
2023-01-17T01:22:11.471Z,3.77
2023-01-17T01:24:57.304Z,3.47
2023-01-17T01:27:43.449Z,2.97
2023-01-17T01:30:29.798Z,3.10
2023-01-17T01:33:15.786Z,2.77
2023-01-17T01:35:43.127Z,1.93
2023-01-17T01:38:10.380Z,2.00
2023-01-17T01:40:42.465Z,2.00
2023-01-17T01:43:11.715Z,1.63
2023-01-17T01:45:39.118Z,1.90
2023-01-17T01:48:12.302Z,1.60
2023-01-17T01:50:39.590Z,1.80
2023-01-17T01:53:07.687Z,1.60
2023-01-17T01:55:36.449Z,1.90
2023-01-17T01:58:09.290Z,1.70
2023-01-17T02:00:37.211Z,2.10
2023-01-17T02:03:06.673Z,2.00
2023-01-17T02:05:34.515Z,1.70
2023-01-17T02:08:07.759Z,2.10
2023-01-17T02:10:36.185Z,1.50
2023-01-17T02:13:03.831Z,1.63
2023-01-17T02:15:53.996Z,1.70
2023-01-17T02:18:21.236Z,1.47
2023-01-17T02:21:19.677Z,1.63
2023-01-17T02:24:03.778Z,1.40
2023-01-17T02:26:34.543Z,1.20
2023-01-17T02:29:06.935Z,0.97
2023-01-17T02:31:43.723Z,1.00
2023-01-17T02:34:14.247Z,1.30
2023-01-17T02:36:55.073Z,1.20
2023-01-17T02:39:24.350Z,1.00
2023-01-17T02:41:58.787Z,0.93
2023-01-17T02:44:26.078Z,1.20
2023-01-17T02:46:54.915Z,0.90
2023-01-17T02:49:40.805Z,1.00
2023-01-17T02:52:20.513Z,0.83
2023-01-17T02:55:06.750Z,0.60
2023-01-17T02:57:54.695Z,0.87
2023-01-17T03:00:51.861Z,0.60
2023-01-17T03:03:34.168Z,0.70
2023-01-17T03:06:13.172Z,0.57
2023-01-17T03:08:44.905Z,0.63
2023-01-17T03:11:12.754Z,0.50
2023-01-17T03:13:41.133Z,0.70
2023-01-17T03:16:18.590Z,0.70
2023-01-17T03:18:46.100Z,0.50
2023-01-17T03:21:13.383Z,0.40
2023-01-17T03:23:40.582Z,0.30
2023-01-17T03:26:07.934Z,0.50
2023-01-17T03:28:35.583Z,0.47
2023-01-17T03:31:02.845Z,0.40
2023-01-17T03:33:30.166Z,0.50
2023-01-17T03:36:00.352Z,0.50
2023-01-17T03:38:30.492Z,0.40
2023-01-17T03:40:58.132Z,0.70
2023-01-17T03:43:25.327Z,0.70
2023-01-17T03:45:54.545Z,0.40
2023-01-17T03:48:22.372Z,0.60
2023-01-17T03:50:52.782Z,0.40
2023-01-17T03:53:20.128Z,0.80
2023-01-17T03:55:47.740Z,0.80
2023-01-17T03:58:16.274Z,0.50
2023-01-17T04:00:43.819Z,0.50
2023-01-17T04:03:11.735Z,0.60
2023-01-17T04:05:38.937Z,0.40
2023-01-17T04:08:07.183Z,0.67
2023-01-17T04:10:34.495Z,0.70
2023-01-17T04:13:20.350Z,0.60
2023-01-17T04:15:48.825Z,0.50
2023-01-17T04:18:17.667Z,0.70
2023-01-17T04:20:44.966Z,0.90
2023-01-17T04:23:12.228Z,0.70
2023-01-17T04:25:39.470Z,0.60
2023-01-17T04:28:06.703Z,0.70
2023-01-17T04:30:34.169Z,0.80
2023-01-17T04:33:01.422Z,0.83
2023-01-17T04:35:30.191Z,0.80
2023-01-17T04:37:57.516Z,1.00
2023-01-17T04:40:24.979Z,0.90
2023-01-17T04:42:52.252Z,1.00
2023-01-17T04:45:19.559Z,0.90
2023-01-17T04:47:46.795Z,0.90
2023-01-17T04:50:14.113Z,0.90
2023-01-17T04:52:41.417Z,1.00
2023-01-17T04:55:09.134Z,0.87
2023-01-17T04:57:36.486Z,1.00
2023-01-17T05:00:04.456Z,1.10
2023-01-17T05:02:31.757Z,0.90
2023-01-17T05:04:59.051Z,0.80
2023-01-17T05:07:26.660Z,1.00
2023-01-17T05:09:53.895Z,1.00
2023-01-17T05:12:21.209Z,0.80
2023-01-17T05:14:48.415Z,1.00
2023-01-17T05:17:15.671Z,0.80
2023-01-17T05:19:42.961Z,1.10
2023-01-17T05:22:15.363Z,1.13
2023-01-17T05:24:43.604Z,0.90
2023-01-17T05:27:11.581Z,1.00
2023-01-17T05:29:38.905Z,0.90
2023-01-17T05:32:06.509Z,0.90
2023-01-17T05:34:34.991Z,0.90
2023-01-17T05:37:02.413Z,0.80
2023-01-17T05:39:30.991Z,1.07
2023-01-17T05:41:58.605Z,2.03
2023-01-17T05:44:27.659Z,1.30
2023-01-17T05:46:55.614Z,1.07
2023-01-17T05:49:22.884Z,1.00
2023-01-17T05:51:50.279Z,1.00
2023-01-17T05:54:17.719Z,1.10
2023-01-17T05:56:45.300Z,1.13
2023-01-17T05:59:14.172Z,1.90
2023-01-17T06:01:41.656Z,0.90
2023-01-17T06:04:09.006Z,1.00
2023-01-17T06:06:36.229Z,0.90
2023-01-17T06:09:03.785Z,1.00
2023-01-17T06:11:30.966Z,1.00
2023-01-17T06:13:58.285Z,1.00
2023-01-17T06:16:25.491Z,2.93
2023-01-17T06:18:52.836Z,1.40
2023-01-17T06:21:20.085Z,0.80
2023-01-17T06:23:47.494Z,1.03
2023-01-17T06:26:14.720Z,1.00
2023-01-17T06:28:42.014Z,1.07
2023-01-17T06:31:09.724Z,0.90
2023-01-17T06:33:37.138Z,1.10
2023-01-17T06:36:04.725Z,1.00
2023-01-17T06:38:32.114Z,1.10
2023-01-17T06:41:00.395Z,1.00
2023-01-17T06:43:28.648Z,1.10
2023-01-17T06:45:56.223Z,1.10
2023-01-17T06:48:24.179Z,0.90
2023-01-17T06:50:51.461Z,1.10
2023-01-17T06:53:18.862Z,1.10
2023-01-17T06:55:46.456Z,1.00
2023-01-17T06:58:13.695Z,1.20
2023-01-17T07:00:41.329Z,1.10
2023-01-17T07:03:15.076Z,1.10
2023-01-17T07:05:42.380Z,1.20
2023-01-17T07:08:09.574Z,1.00
2023-01-17T07:10:36.783Z,1.10
2023-01-17T07:13:04.046Z,0.90
2023-01-17T07:15:31.234Z,1.20
2023-01-17T07:18:01.284Z,0.90
2023-01-17T07:20:28.620Z,1.10
2023-01-17T07:22:55.926Z,1.20
2023-01-17T07:25:23.163Z,1.10
2023-01-17T07:27:53.492Z,1.07
2023-01-17T07:30:21.643Z,1.00
2023-01-17T07:32:53.515Z,1.23
2023-01-17T07:35:21.238Z,0.97
2023-01-17T07:37:49.344Z,1.13
2023-01-17T07:40:20.237Z,0.87
2023-01-17T07:42:47.621Z,1.03
2023-01-17T07:45:16.021Z,1.07
2023-01-17T07:47:43.588Z,1.03
2023-01-17T07:50:11.168Z,1.10
2023-01-17T07:52:38.516Z,1.20
2023-01-17T07:55:06.158Z,1.27
2023-01-17T07:57:33.377Z,1.00
2023-01-17T08:00:00.730Z,0.93
2023-01-17T08:02:27.922Z,1.13
2023-01-17T08:04:55.207Z,0.93
2023-01-17T08:07:22.575Z,1.03
2023-01-17T08:09:50.498Z,1.20
2023-01-17T08:12:18.028Z,1.17
2023-01-17T08:14:45.326Z,1.53
2023-01-17T08:17:13.874Z,1.37
2023-01-17T08:19:41.479Z,2.30
2023-01-17T08:22:09.074Z,2.73
2023-01-17T08:24:37.556Z,1.87
2023-01-17T08:27:05.060Z,1.60
2023-01-17T08:29:32.365Z,1.90
2023-01-17T08:31:59.709Z,1.60
2023-01-17T08:34:27.126Z,1.40
2023-01-17T08:36:54.952Z,1.10
2023-01-17T08:39:22.583Z,1.40
2023-01-17T08:41:50.079Z,1.20
2023-01-17T08:44:19.717Z,1.60
2023-01-17T08:46:46.935Z,1.60
2023-01-17T08:49:14.187Z,1.60
2023-01-17T08:51:41.544Z,1.83
2023-01-17T08:54:09.992Z,1.40
2023-01-17T08:56:37.255Z,2.80
2023-01-17T08:59:04.538Z,1.97
2023-01-17T09:01:40.696Z,1.70
2023-01-17T09:04:11.278Z,1.50
2023-01-17T09:06:39.295Z,1.47
2023-01-17T09:09:07.330Z,1.60
2023-01-17T09:11:34.954Z,1.43
2023-01-17T09:14:02.363Z,1.43
2023-01-17T09:16:29.971Z,1.30
2023-01-17T09:18:57.765Z,1.27
2023-01-17T09:21:25.659Z,1.30
2023-01-17T09:23:53.182Z,1.10
2023-01-17T09:26:25.697Z,1.00
2023-01-17T09:28:53.079Z,1.07
2023-01-17T09:31:21.408Z,1.20
2023-01-17T09:33:49.242Z,1.37
2023-01-17T09:36:16.565Z,1.00
2023-01-17T09:38:44.662Z,1.20
2023-01-17T09:41:20.575Z,1.27
2023-01-17T09:43:50.236Z,1.10
2023-01-17T09:46:23.723Z,1.20
2023-01-17T09:49:12.990Z,1.23
2023-01-17T09:51:40.482Z,1.30
2023-01-17T09:54:10.788Z,1.20
2023-01-17T09:56:41.916Z,1.33
2023-01-17T09:59:12.116Z,1.30
2023-01-17T10:01:54.020Z,1.20
2023-01-17T10:04:28.880Z,1.20
2023-01-17T10:07:25.949Z,1.60
2023-01-17T10:09:53.199Z,1.30
2023-01-17T10:12:26.465Z,1.30
2023-01-17T10:15:03.275Z,1.10
2023-01-17T10:17:37.674Z,1.30
2023-01-17T10:20:17.165Z,1.30
2023-01-17T10:22:51.222Z,1.13
2023-01-17T10:25:39.283Z,1.20
2023-01-17T10:28:16.401Z,1.07
2023-01-17T10:30:45.096Z,1.57
2023-01-17T10:33:17.610Z,1.20
2023-01-17T10:35:54.314Z,1.20
2023-01-17T10:38:25.003Z,1.20
2023-01-17T10:40:55.524Z,1.10
2023-01-17T10:43:29.532Z,1.37
2023-01-17T10:45:57.550Z,1.30
2023-01-17T10:48:39.203Z,1.40
2023-01-17T10:51:15.382Z,1.27
2023-01-17T10:53:52.116Z,1.70
2023-01-17T10:56:21.496Z,1.33
2023-01-17T10:58:49.895Z,1.30
2023-01-17T11:01:21.264Z,0.90
2023-01-17T11:03:50.670Z,1.43
2023-01-17T11:06:19.831Z,1.20
2023-01-17T11:08:56.546Z,1.40
2023-01-17T11:11:31.869Z,1.10
2023-01-17T11:14:06.668Z,1.17
2023-01-17T11:16:35.954Z,1.17
2023-01-17T11:19:06.414Z,1.20
2023-01-17T11:21:33.957Z,1.20
2023-01-17T11:24:09.291Z,1.27
2023-01-17T11:26:37.145Z,1.17
2023-01-17T11:29:25.534Z,1.20
2023-01-17T11:31:52.909Z,1.10
2023-01-17T11:34:25.034Z,1.07
2023-01-17T11:37:09.037Z,0.90
2023-01-17T11:39:36.376Z,1.50
2023-01-17T11:42:06.561Z,1.70
2023-01-17T11:44:35.424Z,1.40
2023-01-17T11:47:09.892Z,1.60
2023-01-17T11:49:37.139Z,1.50
2023-01-17T11:52:11.582Z,1.60
2023-01-17T11:54:42.383Z,3.67
2023-01-17T11:57:24.591Z,1.30
2023-01-17T11:59:56.123Z,1.60
2023-01-17T12:02:36.184Z,1.10
2023-01-17T12:05:18.787Z,1.30
2023-01-17T12:07:58.315Z,1.30
2023-01-17T12:10:28.510Z,1.30
2023-01-17T12:13:39.863Z,1.30
2023-01-17T12:16:27.399Z,1.23
2023-01-17T12:19:00.932Z,1.20
2023-01-17T12:21:30.902Z,1.33
2023-01-17T12:24:03.971Z,1.40
2023-01-17T12:26:49.928Z,1.37
2023-01-17T12:29:26.073Z,1.73
2023-01-17T12:31:53.329Z,1.10
2023-01-17T12:34:40.296Z,1.40
2023-01-17T12:37:13.616Z,1.13
2023-01-17T12:39:43.458Z,1.20
2023-01-17T12:42:15.482Z,1.33
2023-01-17T12:44:57.922Z,1.30
2023-01-17T12:47:26.041Z,1.30
2023-01-17T12:49:57.552Z,1.57
2023-01-17T12:52:37.839Z,1.30
2023-01-17T12:55:12.834Z,1.47
2023-01-17T12:57:45.889Z,1.57
2023-01-17T13:00:14.458Z,1.40
2023-01-17T13:02:57.653Z,1.50
2023-01-17T13:05:26.089Z,1.50
2023-01-17T13:08:01.920Z,1.50
2023-01-17T13:10:44.466Z,1.30
2023-01-17T13:13:24.066Z,1.43
2023-01-17T13:15:54.199Z,1.27
2023-01-17T13:18:25.684Z,1.20
2023-01-17T13:21:11.687Z,1.37
2023-01-17T13:23:41.996Z,1.57
2023-01-17T13:26:29.631Z,1.80
2023-01-17T13:29:05.140Z,1.20
2023-01-17T13:31:41.283Z,1.60
2023-01-17T13:34:14.969Z,1.10
2023-01-17T13:37:01.516Z,1.20
2023-01-17T13:39:38.037Z,1.23
2023-01-17T13:42:13.699Z,1.53
2023-01-17T13:44:41.100Z,1.13
2023-01-17T13:47:11.350Z,1.30
2023-01-17T13:49:42.280Z,1.47
2023-01-17T13:52:12.133Z,1.50
2023-01-17T13:54:58.745Z,1.40
2023-01-17T13:57:28.612Z,1.43
2023-01-17T13:59:57.490Z,1.70
2023-01-17T14:02:33.977Z,1.40
2023-01-17T14:05:15.337Z,1.33
2023-01-17T14:07:48.852Z,1.30
2023-01-17T14:10:22.993Z,1.40
2023-01-17T14:12:51.088Z,1.50
2023-01-17T14:15:27.119Z,1.60
2023-01-17T14:17:56.449Z,1.40
2023-01-17T14:20:42.547Z,1.20
2023-01-17T14:23:21.919Z,1.57
2023-01-17T14:25:49.859Z,1.50
2023-01-17T14:28:43.070Z,1.47
2023-01-17T14:31:11.548Z,1.40
2023-01-17T14:33:39.850Z,1.47
2023-01-17T14:36:08.546Z,1.50
2023-01-17T14:38:41.582Z,1.30
2023-01-17T14:41:11.828Z,1.50
2023-01-17T14:43:41.766Z,1.30
2023-01-17T14:46:15.869Z,1.40
2023-01-17T14:48:43.299Z,1.70
2023-01-17T14:51:15.258Z,1.40
2023-01-17T14:53:52.671Z,1.60
2023-01-17T14:56:19.965Z,1.60
2023-01-17T14:58:47.504Z,1.47
2023-01-17T15:01:14.903Z,1.43
2023-01-17T15:03:53.517Z,1.80
2023-01-17T15:06:22.556Z,2.70
2023-01-17T15:08:54.288Z,1.80
2023-01-17T15:11:24.205Z,1.53
2023-01-17T15:13:53.264Z,1.90
2023-01-17T15:16:52.187Z,2.47
2023-01-17T15:19:20.196Z,1.73
2023-01-17T15:21:50.588Z,1.87
2023-01-17T15:24:23.114Z,1.70
2023-01-17T15:26:51.271Z,1.80
2023-01-17T15:29:45.022Z,1.73
2023-01-17T15:32:18.566Z,1.60
2023-01-17T15:34:46.803Z,1.50
2023-01-17T15:37:32.742Z,2.10
2023-01-17T15:40:06.455Z,1.90
2023-01-17T15:42:35.326Z,1.80
2023-01-17T15:45:04.189Z,1.90
2023-01-17T15:47:35.573Z,1.60
2023-01-17T15:50:04.033Z,2.03
2023-01-17T15:52:31.358Z,1.90
2023-01-17T15:55:15.173Z,1.80
2023-01-17T15:57:47.632Z,1.90
2023-01-17T16:00:21.477Z,1.73
2023-01-17T16:02:55.107Z,1.73
2023-01-17T16:05:23.136Z,1.80
2023-01-17T16:07:51.310Z,2.20
2023-01-17T16:10:20.307Z,2.10
2023-01-17T16:12:48.547Z,2.33
2023-01-17T16:15:18.310Z,2.13
2023-01-17T16:17:48.989Z,2.40
2023-01-17T16:20:16.484Z,2.10
2023-01-17T16:22:44.047Z,2.10
2023-01-17T16:25:18.454Z,2.10
2023-01-17T16:27:46.030Z,2.17
2023-01-17T16:30:17.900Z,1.87
2023-01-17T16:32:49.257Z,2.33
2023-01-17T16:35:20.965Z,2.30
2023-01-17T16:37:51.617Z,2.30
2023-01-17T16:40:19.985Z,2.97
2023-01-17T16:42:47.378Z,2.70
2023-01-17T16:45:15.144Z,2.80
2023-01-17T16:47:43.152Z,2.40
2023-01-17T16:50:11.604Z,2.10
2023-01-17T16:52:38.914Z,3.10
2023-01-17T16:55:07.227Z,3.90
2023-01-17T16:57:34.515Z,4.20
2023-01-17T17:00:01.751Z,3.20
2023-01-17T17:02:29.130Z,3.63
2023-01-17T17:04:56.380Z,3.97
2023-01-17T17:07:23.630Z,4.20
2023-01-17T17:09:50.881Z,4.53
2023-01-17T17:12:18.116Z,5.07
2023-01-17T17:14:45.546Z,4.90
2023-01-17T17:17:12.762Z,4.33
2023-01-17T17:19:40.449Z,4.73
2023-01-17T17:22:07.706Z,5.57
2023-01-17T17:24:35.317Z,5.37
2023-01-17T17:27:02.625Z,5.20
2023-01-17T17:29:29.876Z,5.10
2023-01-17T17:31:57.174Z,4.80
2023-01-17T17:34:27.561Z,5.60
2023-01-17T17:36:55.078Z,5.53
2023-01-17T17:39:22.404Z,5.30
2023-01-17T17:41:49.747Z,5.47
2023-01-17T17:44:17.506Z,6.10
2023-01-17T17:46:49.119Z,6.07
2023-01-17T17:49:17.047Z,5.90
2023-01-17T17:52:02.738Z,6.17
2023-01-17T17:54:30.022Z,6.27
2023-01-17T17:56:57.236Z,8.43
2023-01-17T17:59:24.479Z,12.97
2023-01-17T18:01:52.189Z,9.03
2023-01-17T18:04:20.000Z,6.53
2023-01-17T18:06:47.349Z,5.77
2023-01-17T18:09:15.080Z,5.33
2023-01-17T18:11:42.714Z,6.63
2023-01-17T18:14:11.652Z,7.63
2023-01-17T18:16:41.680Z,7.70
2023-01-17T18:19:12.564Z,8.00
2023-01-17T18:21:40.159Z,8.87
2023-01-17T18:24:09.310Z,9.43
2023-01-17T18:26:38.324Z,8.43
2023-01-17T18:29:06.462Z,11.83
2023-01-17T18:34:21.303Z,9.33
2023-01-17T18:36:48.840Z,8.37
2023-01-17T18:39:17.778Z,8.83
2023-01-17T18:41:45.098Z,8.13
2023-01-17T18:44:12.497Z,8.90
2023-01-17T18:46:40.414Z,7.73
2023-01-17T18:49:07.844Z,8.60
2023-01-17T18:51:35.280Z,8.53
2023-01-17T18:54:06.775Z,9.00
2023-01-17T18:56:35.021Z,8.13
2023-01-17T18:59:02.780Z,8.47
2023-01-17T19:01:32.494Z,8.50
2023-01-17T19:04:01.587Z,8.27
2023-01-17T19:06:33.533Z,8.80
2023-01-17T19:09:00.769Z,9.07
2023-01-17T19:11:28.620Z,8.47
2023-01-17T19:13:56.023Z,9.00
2023-01-17T19:16:25.075Z,8.60
2023-01-17T19:18:52.913Z,10.17
2023-01-17T19:21:21.451Z,8.70
2023-01-17T19:23:48.974Z,8.33
2023-01-17T19:26:20.413Z,8.67
2023-01-17T19:28:48.268Z,8.63
2023-01-17T19:31:20.838Z,8.33
2023-01-17T19:33:48.877Z,9.27
2023-01-17T19:36:18.630Z,9.00
2023-01-17T19:38:58.611Z,8.60
2023-01-17T19:41:30.801Z,8.50
2023-01-17T19:43:59.430Z,9.50
2023-01-17T19:46:27.494Z,9.00
2023-01-17T19:48:55.582Z,8.57
2023-01-17T19:51:23.223Z,9.20
2023-01-17T19:53:50.571Z,9.70
2023-01-17T19:56:19.278Z,8.70
2023-01-17T19:58:47.572Z,9.70
2023-01-17T20:01:19.223Z,10.23
2023-01-17T20:03:47.160Z,11.00
2023-01-17T20:06:15.788Z,10.57
2023-01-17T20:08:43.534Z,10.20
2023-01-17T20:11:14.587Z,8.50
2023-01-17T20:13:45.160Z,8.57
2023-01-17T20:16:14.027Z,8.67
2023-01-17T20:18:41.483Z,8.40
2023-01-17T20:21:10.099Z,9.20
2023-01-17T20:23:42.835Z,8.80
2023-01-17T20:26:10.726Z,8.63
2023-01-17T20:28:38.695Z,8.03
2023-01-17T20:31:12.595Z,8.40
2023-01-17T20:33:40.856Z,8.07
2023-01-17T20:36:11.018Z,8.53
2023-01-17T20:38:45.396Z,8.33
2023-01-17T20:41:15.634Z,8.53
2023-01-17T20:43:49.928Z,8.20
2023-01-17T20:46:17.727Z,8.47
2023-01-17T20:48:45.797Z,8.20
2023-01-17T20:51:13.523Z,8.67
2023-01-17T20:53:44.161Z,8.33
2023-01-17T20:56:13.005Z,9.37
2023-01-17T20:58:40.233Z,8.33
2023-01-17T21:01:08.779Z,8.63
2023-01-17T21:03:36.657Z,7.97
2023-01-17T21:06:05.418Z,8.77
2023-01-17T21:08:33.807Z,8.77
2023-01-17T21:11:01.467Z,8.13
2023-01-17T21:13:28.713Z,8.10
2023-01-17T21:15:56.026Z,7.60
2023-01-17T21:18:24.455Z,7.57
2023-01-17T21:20:52.152Z,8.17
2023-01-17T21:23:20.052Z,7.83
2023-01-17T21:25:55.687Z,38.90
2023-01-17T21:28:24.285Z,44.47
2023-01-17T21:30:51.744Z,8.53
2023-01-17T21:33:19.932Z,7.77
2023-01-17T21:35:47.197Z,7.13
2023-01-17T21:38:14.560Z,6.90
2023-01-17T21:40:42.328Z,7.17
2023-01-17T21:43:09.651Z,6.93
2023-01-17T21:45:37.610Z,7.23
2023-01-17T21:48:05.235Z,7.23
2023-01-17T21:50:33.695Z,7.53
2023-01-17T21:53:01.120Z,7.13
2023-01-17T21:55:46.943Z,7.30
2023-01-17T21:58:33.457Z,7.00
2023-01-17T22:01:21.766Z,7.33
2023-01-17T22:03:51.058Z,6.90
2023-01-17T22:06:18.737Z,6.93
2023-01-17T22:08:45.979Z,6.60
2023-01-17T22:11:14.893Z,7.17
2023-01-17T22:13:42.968Z,6.60
2023-01-17T22:16:20.846Z,7.07
2023-01-17T22:18:48.454Z,7.30
2023-01-17T22:21:17.423Z,6.87
2023-01-17T22:23:49.045Z,6.73
2023-01-17T22:26:16.355Z,7.33
2023-01-17T22:28:44.042Z,6.80
2023-01-17T22:31:22.429Z,7.17
2023-01-17T22:33:56.668Z,7.00
2023-01-17T22:36:24.625Z,6.90
2023-01-17T22:38:52.316Z,7.20
2023-01-17T22:41:20.924Z,7.90
2023-01-17T22:43:49.549Z,7.70
2023-01-17T22:46:18.812Z,7.30
2023-01-17T22:48:48.631Z,7.57
2023-01-17T22:51:17.358Z,7.10
2023-01-17T22:53:45.859Z,7.10
2023-01-17T22:56:13.982Z,7.87
2023-01-17T22:58:45.153Z,8.17
2023-01-17T23:01:13.754Z,8.30
2023-01-17T23:03:41.463Z,8.20
2023-01-17T23:06:12.974Z,8.03
2023-01-17T23:08:41.141Z,8.13
2023-01-17T23:11:39.001Z,8.20
2023-01-17T23:14:21.544Z,8.10
2023-01-17T23:17:18.127Z,8.27
2023-01-17T23:19:47.757Z,7.67
2023-01-17T23:22:16.225Z,7.40
2023-01-17T23:24:43.757Z,7.27
2023-01-17T23:27:31.108Z,7.23
2023-01-17T23:29:58.575Z,7.30
2023-01-17T23:32:45.234Z,7.57
2023-01-17T23:35:12.476Z,8.33
2023-01-17T23:37:58.536Z,8.80
2023-01-17T23:40:25.846Z,9.13
2023-01-17T23:43:11.898Z,9.03
2023-01-17T23:45:39.660Z,8.87
2023-01-17T23:48:09.579Z,9.60
2023-01-17T23:50:41.288Z,8.43
2023-01-17T23:53:09.223Z,8.30
2023-01-17T23:55:41.170Z,9.10
2023-01-17T23:58:09.758Z,7.57
